Para de Minas, Brazil
Current Conditions -  °F | °C
As of 7:00 AM on Sunday 21 Dec 2014 (Local Time) from SBPR Reporting Station
Broken Clouds Broken Clouds  
Wind Chill: 72°   Ceiling: 3000
Heat Index: 72°   Visibility: 6mi
Dew Point: 68°   Wind: 6mph
Humidity: 88%   Direction: 90°E
Pressure: 29.77"   Gusts: NA
Location:  19.84°S, 44.61°W
Report Text: SBPR 210900Z 09005KT 9999 FEW010 BKN030 22/20 Q1008
Loading
Personal Weather Stations






























Interactive Weather Map New forecast layout! Learn more

10-Day Weather Forecast

Advertisements
Track Severe Weather on mobile